sensor_id;sensor_type;location;lat;lon;timestamp;temperature;humidity
13817;DHT22;6979;52.116;5.286;2023-08-20T00:01:10;23.20;99.90
13817;DHT22;6979;52.116;5.286;2023-08-20T00:03:40;23.20;99.90
13817;DHT22;6979;52.116;5.286;2023-08-20T00:06:08;23.10;99.90
13817;DHT22;6979;52.116;5.286;2023-08-20T00:08:35;23.10;99.90
13817;DHT22;6979;52.116;5.286;2023-08-20T00:11:02;23.10;99.90
13817;DHT22;6979;52.116;5.286;2023-08-20T00:13:30;23.10;99.90
13817;DHT22;6979;52.116;5.286;2023-08-20T00:15:57;23.00;99.90
13817;DHT22;6979;52.116;5.286;2023-08-20T00:18:26;23.00;99.90
13817;DHT22;6979;52.116;5.286;2023-08-20T00:20:54;22.90;99.90
13817;DHT22;6979;52.116;5.286;2023-08-20T00:23:21;22.90;99.90
13817;DHT22;6979;52.116;5.286;2023-08-20T00:25:49;22.90;99.90
13817;DHT22;6979;52.116;5.286;2023-08-20T00:28:16;22.90;99.90
13817;DHT22;6979;52.116;5.286;2023-08-20T00:30:43;22.90;99.90
13817;DHT22;6979;52.116;5.286;2023-08-20T00:33:10;22.90;99.90
13817;DHT22;6979;52.116;5.286;2023-08-20T00:35:39;22.90;99.90
13817;DHT22;6979;52.116;5.286;2023-08-20T00:38:06;22.90;99.90
13817;DHT22;6979;52.116;5.286;2023-08-20T00:40:33;22.90;99.90
13817;DHT22;6979;52.116;5.286;2023-08-20T00:43:00;22.90;99.90
13817;DHT22;6979;52.116;5.286;2023-08-20T00:45:27;22.90;99.90
13817;DHT22;6979;52.116;5.286;2023-08-20T00:47:54;22.90;99.90
13817;DHT22;6979;52.116;5.286;2023-08-20T00:50:22;22.90;99.90
13817;DHT22;6979;52.116;5.286;2023-08-20T00:52:50;22.90;99.90
13817;DHT22;6979;52.116;5.286;2023-08-20T00:55:17;22.90;99.90
13817;DHT22;6979;52.116;5.286;2023-08-20T00:57:44;22.90;99.90
13817;DHT22;6979;52.116;5.286;2023-08-20T01:00:12;22.90;99.90
13817;DHT22;6979;52.116;5.286;2023-08-20T01:02:39;22.90;99.90
13817;DHT22;6979;52.116;5.286;2023-08-20T01:05:09;22.90;99.90
13817;DHT22;6979;52.116;5.286;2023-08-20T01:07:44;23.00;99.90
13817;DHT22;6979;52.116;5.286;2023-08-20T01:10:19;22.90;99.90
13817;DHT22;6979;52.116;5.286;2023-08-20T01:12:50;22.90;99.90
13817;DHT22;6979;52.116;5.286;2023-08-20T01:15:18;22.90;99.90
13817;DHT22;6979;52.116;5.286;2023-08-20T01:17:45;22.90;99.90
13817;DHT22;6979;52.116;5.286;2023-08-20T01:20:13;22.90;99.90
13817;DHT22;6979;52.116;5.286;2023-08-20T01:22:59;22.90;99.90
13817;DHT22;6979;52.116;5.286;2023-08-20T01:25:46;22.80;99.90
13817;DHT22;6979;52.116;5.286;2023-08-20T01:28:24;22.80;99.90
13817;DHT22;6979;52.116;5.286;2023-08-20T01:30:53;22.80;99.90
13817;DHT22;6979;52.116;5.286;2023-08-20T01:33:21;22.80;99.90
13817;DHT22;6979;52.116;5.286;2023-08-20T01:35:48;22.80;99.90
13817;DHT22;6979;52.116;5.286;2023-08-20T01:38:15;22.70;99.90
13817;DHT22;6979;52.116;5.286;2023-08-20T01:40:42;22.70;99.90
13817;DHT22;6979;52.116;5.286;2023-08-20T01:43:09;22.70;99.90
13817;DHT22;6979;52.116;5.286;2023-08-20T01:45:37;22.70;99.90
13817;DHT22;6979;52.116;5.286;2023-08-20T01:48:05;22.60;99.90
13817;DHT22;6979;52.116;5.286;2023-08-20T01:50:34;22.60;99.90
13817;DHT22;6979;52.116;5.286;2023-08-20T01:53:01;22.60;99.90
13817;DHT22;6979;52.116;5.286;2023-08-20T01:55:29;22.60;99.90
13817;DHT22;6979;52.116;5.286;2023-08-20T01:57:56;22.60;99.90
13817;DHT22;6979;52.116;5.286;2023-08-20T02:00:23;22.60;99.90
13817;DHT22;6979;52.116;5.286;2023-08-20T02:02:52;22.60;99.90
13817;DHT22;6979;52.116;5.286;2023-08-20T02:05:19;22.60;99.90
13817;DHT22;6979;52.116;5.286;2023-08-20T02:07:46;22.60;99.90
13817;DHT22;6979;52.116;5.286;2023-08-20T02:10:13;22.60;99.90
13817;DHT22;6979;52.116;5.286;2023-08-20T02:12:41;22.50;99.90
13817;DHT22;6979;52.116;5.286;2023-08-20T02:15:09;22.60;99.90
13817;DHT22;6979;52.116;5.286;2023-08-20T02:17:36;22.50;99.90
13817;DHT22;6979;52.116;5.286;2023-08-20T02:20:06;22.50;99.90
13817;DHT22;6979;52.116;5.286;2023-08-20T02:22:35;22.50;99.90
13817;DHT22;6979;52.116;5.286;2023-08-20T02:25:03;22.50;99.90
13817;DHT22;6979;52.116;5.286;2023-08-20T02:27:29;22.50;99.90
13817;DHT22;6979;52.116;5.286;2023-08-20T02:29:56;22.50;99.90
13817;DHT22;6979;52.116;5.286;2023-08-20T02:32:23;22.40;99.90
13817;DHT22;6979;52.116;5.286;2023-08-20T02:34:51;22.40;99.90
13817;DHT22;6979;52.116;5.286;2023-08-20T02:37:20;22.30;99.90
13817;DHT22;6979;52.116;5.286;2023-08-20T02:39:47;22.30;99.90
13817;DHT22;6979;52.116;5.286;2023-08-20T02:42:14;22.20;99.90
13817;DHT22;6979;52.116;5.286;2023-08-20T02:44:41;22.20;99.90
13817;DHT22;6979;52.116;5.286;2023-08-20T02:47:08;22.20;99.90
13817;DHT22;6979;52.116;5.286;2023-08-20T02:49:35;22.10;99.90
13817;DHT22;6979;52.116;5.286;2023-08-20T02:52:02;22.10;99.90
13817;DHT22;6979;52.116;5.286;2023-08-20T02:54:31;22.10;99.90
13817;DHT22;6979;52.116;5.286;2023-08-20T02:56:59;22.00;99.90
13817;DHT22;6979;52.116;5.286;2023-08-20T02:59:26;22.00;99.90
13817;DHT22;6979;52.116;5.286;2023-08-20T03:01:53;21.90;99.90
13817;DHT22;6979;52.116;5.286;2023-08-20T03:04:20;21.80;99.90
13817;DHT22;6979;52.116;5.286;2023-08-20T03:06:46;21.80;99.90
13817;DHT22;6979;52.116;5.286;2023-08-20T03:09:13;21.70;99.90
13817;DHT22;6979;52.116;5.286;2023-08-20T03:11:42;21.70;99.90
13817;DHT22;6979;52.116;5.286;2023-08-20T03:14:09;21.70;99.90
13817;DHT22;6979;52.116;5.286;2023-08-20T03:16:36;21.70;99.90
13817;DHT22;6979;52.116;5.286;2023-08-20T03:19:04;21.60;99.90
13817;DHT22;6979;52.116;5.286;2023-08-20T03:21:31;21.60;99.90
13817;DHT22;6979;52.116;5.286;2023-08-20T03:23:58;21.60;99.90
13817;DHT22;6979;52.116;5.286;2023-08-20T03:26:25;21.50;99.90
13817;DHT22;6979;52.116;5.286;2023-08-20T03:28:53;21.50;99.90
13817;DHT22;6979;52.116;5.286;2023-08-20T03:31:20;21.50;99.90
13817;DHT22;6979;52.116;5.286;2023-08-20T03:33:48;21.40;99.90
13817;DHT22;6979;52.116;5.286;2023-08-20T03:36:15;21.40;99.90
13817;DHT22;6979;52.116;5.286;2023-08-20T03:38:42;21.30;99.90
13817;DHT22;6979;52.116;5.286;2023-08-20T03:41:09;21.30;99.90
13817;DHT22;6979;52.116;5.286;2023-08-20T03:43:36;21.30;99.90
13817;DHT22;6979;52.116;5.286;2023-08-20T03:46:04;21.30;99.90
13817;DHT22;6979;52.116;5.286;2023-08-20T03:48:31;21.30;99.90
13817;DHT22;6979;52.116;5.286;2023-08-20T03:50:58;21.30;99.90
13817;DHT22;6979;52.116;5.286;2023-08-20T03:53:25;21.30;99.90
13817;DHT22;6979;52.116;5.286;2023-08-20T03:55:52;21.30;99.90
13817;DHT22;6979;52.116;5.286;2023-08-20T03:58:18;21.30;99.90
13817;DHT22;6979;52.116;5.286;2023-08-20T04:00:45;21.30;99.90
13817;DHT22;6979;52.116;5.286;2023-08-20T04:03:21;21.30;99.90
13817;DHT22;6979;52.116;5.286;2023-08-20T04:05:49;21.30;99.90
13817;DHT22;6979;52.116;5.286;2023-08-20T04:08:16;21.40;99.90
13817;DHT22;6979;52.116;5.286;2023-08-20T04:10:43;21.40;99.90
13817;DHT22;6979;52.116;5.286;2023-08-20T04:13:11;21.40;99.90
13817;DHT22;6979;52.116;5.286;2023-08-20T04:15:39;21.40;99.90
13817;DHT22;6979;52.116;5.286;2023-08-20T04:18:07;21.40;99.90
13817;DHT22;6979;52.116;5.286;2023-08-20T04:20:36;21.40;99.90
13817;DHT22;6979;52.116;5.286;2023-08-20T04:23:03;21.40;99.90
13817;DHT22;6979;52.116;5.286;2023-08-20T04:25:31;21.40;99.90
13817;DHT22;6979;52.116;5.286;2023-08-20T04:27:58;21.40;99.90
13817;DHT22;6979;52.116;5.286;2023-08-20T04:30:25;21.50;99.90
13817;DHT22;6979;52.116;5.286;2023-08-20T04:32:53;21.40;99.90
13817;DHT22;6979;52.116;5.286;2023-08-20T04:35:21;21.40;99.90
13817;DHT22;6979;52.116;5.286;2023-08-20T04:37:51;21.40;99.90
13817;DHT22;6979;52.116;5.286;2023-08-20T04:40:18;21.40;99.90
13817;DHT22;6979;52.116;5.286;2023-08-20T04:42:45;21.40;99.90
13817;DHT22;6979;52.116;5.286;2023-08-20T04:45:12;21.30;99.90
13817;DHT22;6979;52.116;5.286;2023-08-20T04:47:39;21.30;99.90
13817;DHT22;6979;52.116;5.286;2023-08-20T04:50:08;21.30;99.90
13817;DHT22;6979;52.116;5.286;2023-08-20T04:52:35;21.30;99.90
13817;DHT22;6979;52.116;5.286;2023-08-20T04:55:03;21.20;99.90
13817;DHT22;6979;52.116;5.286;2023-08-20T04:57:32;21.20;99.90
13817;DHT22;6979;52.116;5.286;2023-08-20T04:59:59;21.10;99.90
13817;DHT22;6979;52.116;5.286;2023-08-20T05:02:45;21.10;99.90
13817;DHT22;6979;52.116;5.286;2023-08-20T05:05:15;21.10;99.90
13817;DHT22;6979;52.116;5.286;2023-08-20T05:07:44;21.10;99.90
13817;DHT22;6979;52.116;5.286;2023-08-20T05:10:12;21.00;99.90
13817;DHT22;6979;52.116;5.286;2023-08-20T05:12:39;21.00;99.90
13817;DHT22;6979;52.116;5.286;2023-08-20T05:15:07;21.00;99.90
13817;DHT22;6979;52.116;5.286;2023-08-20T05:17:34;21.00;99.90
13817;DHT22;6979;52.116;5.286;2023-08-20T05:20:02;20.90;99.90
13817;DHT22;6979;52.116;5.286;2023-08-20T05:22:29;21.00;99.90
13817;DHT22;6979;52.116;5.286;2023-08-20T05:24:58;20.90;99.90
13817;DHT22;6979;52.116;5.286;2023-08-20T05:27:27;20.90;99.90
13817;DHT22;6979;52.116;5.286;2023-08-20T05:29:56;20.90;99.90
13817;DHT22;6979;52.116;5.286;2023-08-20T05:32:23;20.90;99.90
13817;DHT22;6979;52.116;5.286;2023-08-20T05:34:50;20.90;99.90
13817;DHT22;6979;52.116;5.286;2023-08-20T05:37:17;20.90;99.90
13817;DHT22;6979;52.116;5.286;2023-08-20T05:39:44;20.90;99.90
13817;DHT22;6979;52.116;5.286;2023-08-20T05:42:12;20.80;99.90
13817;DHT22;6979;52.116;5.286;2023-08-20T05:44:45;20.90;99.90
13817;DHT22;6979;52.116;5.286;2023-08-20T05:47:16;20.90;99.90
13817;DHT22;6979;52.116;5.286;2023-08-20T05:49:43;20.90;99.90
13817;DHT22;6979;52.116;5.286;2023-08-20T05:52:10;20.90;99.90
13817;DHT22;6979;52.116;5.286;2023-08-20T05:54:38;20.90;99.90
13817;DHT22;6979;52.116;5.286;2023-08-20T05:57:05;20.90;99.90
13817;DHT22;6979;52.116;5.286;2023-08-20T05:59:32;20.90;99.90
13817;DHT22;6979;52.116;5.286;2023-08-20T06:02:02;20.90;99.90
13817;DHT22;6979;52.116;5.286;2023-08-20T06:04:32;20.90;99.90
13817;DHT22;6979;52.116;5.286;2023-08-20T06:07:01;20.90;99.90
13817;DHT22;6979;52.116;5.286;2023-08-20T06:09:28;20.90;99.90
13817;DHT22;6979;52.116;5.286;2023-08-20T06:11:55;20.90;99.90
13817;DHT22;6979;52.116;5.286;2023-08-20T06:14:22;20.90;99.90
13817;DHT22;6979;52.116;5.286;2023-08-20T06:16:49;21.00;99.90
13817;DHT22;6979;52.116;5.286;2023-08-20T06:19:17;21.00;99.90
13817;DHT22;6979;52.116;5.286;2023-08-20T06:21:44;21.10;99.90
13817;DHT22;6979;52.116;5.286;2023-08-20T06:24:11;21.10;99.90
13817;DHT22;6979;52.116;5.286;2023-08-20T06:26:38;21.20;99.90
13817;DHT22;6979;52.116;5.286;2023-08-20T06:29:06;21.30;99.90
13817;DHT22;6979;52.116;5.286;2023-08-20T06:31:34;21.30;99.90
13817;DHT22;6979;52.116;5.286;2023-08-20T06:34:00;21.30;99.90
13817;DHT22;6979;52.116;5.286;2023-08-20T06:36:29;21.40;99.90
13817;DHT22;6979;52.116;5.286;2023-08-20T06:38:56;21.50;99.90
13817;DHT22;6979;52.116;5.286;2023-08-20T06:41:23;21.50;99.90
13817;DHT22;6979;52.116;5.286;2023-08-20T06:43:50;21.60;99.90
13817;DHT22;6979;52.116;5.286;2023-08-20T06:46:17;21.70;99.90
13817;DHT22;6979;52.116;5.286;2023-08-20T06:48:43;21.80;99.90
13817;DHT22;6979;52.116;5.286;2023-08-20T06:51:14;21.80;99.90
13817;DHT22;6979;52.116;5.286;2023-08-20T06:53:43;21.90;99.90
13817;DHT22;6979;52.116;5.286;2023-08-20T06:56:10;22.00;99.90
13817;DHT22;6979;52.116;5.286;2023-08-20T06:58:38;22.00;99.90
13817;DHT22;6979;52.116;5.286;2023-08-20T07:01:05;22.10;99.90
13817;DHT22;6979;52.116;5.286;2023-08-20T07:03:35;22.20;99.90
13817;DHT22;6979;52.116;5.286;2023-08-20T07:06:02;22.20;99.90
13817;DHT22;6979;52.116;5.286;2023-08-20T07:08:29;22.30;99.90
13817;DHT22;6979;52.116;5.286;2023-08-20T07:10:58;22.40;99.90
13817;DHT22;6979;52.116;5.286;2023-08-20T07:13:24;22.40;99.90
13817;DHT22;6979;52.116;5.286;2023-08-20T07:15:51;22.50;99.90
13817;DHT22;6979;52.116;5.286;2023-08-20T07:18:19;22.60;99.90
13817;DHT22;6979;52.116;5.286;2023-08-20T07:20:46;22.70;99.90
13817;DHT22;6979;52.116;5.286;2023-08-20T07:23:13;22.70;99.90
13817;DHT22;6979;52.116;5.286;2023-08-20T07:25:41;22.80;99.90
13817;DHT22;6979;52.116;5.286;2023-08-20T07:28:11;22.90;99.90
13817;DHT22;6979;52.116;5.286;2023-08-20T07:30:38;23.00;99.90
13817;DHT22;6979;52.116;5.286;2023-08-20T07:33:06;23.00;99.90
13817;DHT22;6979;52.116;5.286;2023-08-20T07:35:34;23.10;99.90
13817;DHT22;6979;52.116;5.286;2023-08-20T07:38:01;23.20;99.90
13817;DHT22;6979;52.116;5.286;2023-08-20T07:40:28;23.20;99.90
13817;DHT22;6979;52.116;5.286;2023-08-20T07:42:55;23.30;99.90
13817;DHT22;6979;52.116;5.286;2023-08-20T07:45:24;23.40;99.90
13817;DHT22;6979;52.116;5.286;2023-08-20T07:47:51;23.40;99.90
13817;DHT22;6979;52.116;5.286;2023-08-20T07:50:18;23.50;99.90
13817;DHT22;6979;52.116;5.286;2023-08-20T07:52:45;23.50;99.90
13817;DHT22;6979;52.116;5.286;2023-08-20T07:55:12;23.60;99.90
13817;DHT22;6979;52.116;5.286;2023-08-20T07:57:39;23.70;99.90
13817;DHT22;6979;52.116;5.286;2023-08-20T08:00:07;23.70;99.90
13817;DHT22;6979;52.116;5.286;2023-08-20T08:02:38;23.80;99.90
13817;DHT22;6979;52.116;5.286;2023-08-20T08:05:06;23.90;99.90
13817;DHT22;6979;52.116;5.286;2023-08-20T08:07:33;23.90;99.90
13817;DHT22;6979;52.116;5.286;2023-08-20T08:10:00;24.00;99.90
13817;DHT22;6979;52.116;5.286;2023-08-20T08:12:27;24.00;99.90
13817;DHT22;6979;52.116;5.286;2023-08-20T08:14:54;24.10;99.90
13817;DHT22;6979;52.116;5.286;2023-08-20T08:17:21;24.10;99.90
13817;DHT22;6979;52.116;5.286;2023-08-20T08:19:49;24.20;99.90
13817;DHT22;6979;52.116;5.286;2023-08-20T08:22:19;24.30;99.90
13817;DHT22;6979;52.116;5.286;2023-08-20T08:24:46;24.30;99.90
13817;DHT22;6979;52.116;5.286;2023-08-20T08:27:13;24.40;99.90
13817;DHT22;6979;52.116;5.286;2023-08-20T08:29:40;24.50;99.90
13817;DHT22;6979;52.116;5.286;2023-08-20T08:32:08;24.60;99.90
13817;DHT22;6979;52.116;5.286;2023-08-20T08:34:35;24.60;99.90
13817;DHT22;6979;52.116;5.286;2023-08-20T08:37:03;24.70;99.90
13817;DHT22;6979;52.116;5.286;2023-08-20T08:39:30;24.80;99.90
13817;DHT22;6979;52.116;5.286;2023-08-20T08:42:01;24.90;99.90
13817;DHT22;6979;52.116;5.286;2023-08-20T08:44:30;24.90;99.90
13817;DHT22;6979;52.116;5.286;2023-08-20T08:46:58;25.00;99.90
13817;DHT22;6979;52.116;5.286;2023-08-20T08:49:25;25.10;99.90
13817;DHT22;6979;52.116;5.286;2023-08-20T08:51:53;25.20;99.90
13817;DHT22;6979;52.116;5.286;2023-08-20T08:54:24;25.20;99.90
13817;DHT22;6979;52.116;5.286;2023-08-20T08:56:52;25.30;99.90
13817;DHT22;6979;52.116;5.286;2023-08-20T08:59:19;25.30;99.90
13817;DHT22;6979;52.116;5.286;2023-08-20T09:01:46;25.40;99.90
13817;DHT22;6979;52.116;5.286;2023-08-20T09:04:13;25.50;99.90
13817;DHT22;6979;52.116;5.286;2023-08-20T09:06:48;25.60;99.90
13817;DHT22;6979;52.116;5.286;2023-08-20T09:09:16;25.70;99.90
13817;DHT22;6979;52.116;5.286;2023-08-20T09:11:44;25.90;99.90
13817;DHT22;6979;52.116;5.286;2023-08-20T09:14:21;26.20;99.90
13817;DHT22;6979;52.116;5.286;2023-08-20T09:16:54;26.70;99.90
13817;DHT22;6979;52.116;5.286;2023-08-20T09:19:22;27.30;99.90
13817;DHT22;6979;52.116;5.286;2023-08-20T09:21:49;27.90;99.90
13817;DHT22;6979;52.116;5.286;2023-08-20T09:24:26;28.40;99.90
13817;DHT22;6979;52.116;5.286;2023-08-20T09:27:01;29.10;99.90
13817;DHT22;6979;52.116;5.286;2023-08-20T09:29:31;29.70;99.90
13817;DHT22;6979;52.116;5.286;2023-08-20T09:32:02;30.30;99.90
13817;DHT22;6979;52.116;5.286;2023-08-20T09:34:36;30.90;99.10
13817;DHT22;6979;52.116;5.286;2023-08-20T09:37:07;31.40;98.10
13817;DHT22;6979;52.116;5.286;2023-08-20T09:39:34;32.00;97.50
13817;DHT22;6979;52.116;5.286;2023-08-20T09:42:04;32.50;95.50
13817;DHT22;6979;52.116;5.286;2023-08-20T09:44:34;33.00;94.90
13817;DHT22;6979;52.116;5.286;2023-08-20T09:47:03;33.40;93.60
13817;DHT22;6979;52.116;5.286;2023-08-20T09:49:35;33.70;92.30
13817;DHT22;6979;52.116;5.286;2023-08-20T09:52:04;33.70;90.80
13817;DHT22;6979;52.116;5.286;2023-08-20T09:54:37;33.60;90.00
13817;DHT22;6979;52.116;5.286;2023-08-20T09:57:09;33.30;89.10
13817;DHT22;6979;52.116;5.286;2023-08-20T09:59:38;32.90;89.00
13817;DHT22;6979;52.116;5.286;2023-08-20T10:02:07;32.40;89.70
13817;DHT22;6979;52.116;5.286;2023-08-20T10:04:37;32.00;90.30
13817;DHT22;6979;52.116;5.286;2023-08-20T10:07:04;31.60;90.30
13817;DHT22;6979;52.116;5.286;2023-08-20T10:09:31;31.30;90.60
13817;DHT22;6979;52.116;5.286;2023-08-20T10:12:00;31.00;90.70
13817;DHT22;6979;52.116;5.286;2023-08-20T10:14:29;30.80;91.20
13817;DHT22;6979;52.116;5.286;2023-08-20T10:16:57;30.70;91.70
13817;DHT22;6979;52.116;5.286;2023-08-20T10:19:24;30.60;91.70
13817;DHT22;6979;52.116;5.286;2023-08-20T10:21:52;30.60;92.00
13817;DHT22;6979;52.116;5.286;2023-08-20T10:24:19;30.70;91.80
13817;DHT22;6979;52.116;5.286;2023-08-20T10:26:46;30.90;92.10
13817;DHT22;6979;52.116;5.286;2023-08-20T10:29:40;31.00;91.60
13817;DHT22;6979;52.116;5.286;2023-08-20T10:32:09;31.30;90.70
13817;DHT22;6979;52.116;5.286;2023-08-20T10:34:37;31.50;90.90
13817;DHT22;6979;52.116;5.286;2023-08-20T10:37:21;31.70;90.70
13817;DHT22;6979;52.116;5.286;2023-08-20T10:39:54;31.90;90.50
13817;DHT22;6979;52.116;5.286;2023-08-20T10:42:27;32.20;90.80
13817;DHT22;6979;52.116;5.286;2023-08-20T10:45:05;32.50;89.60
13817;DHT22;6979;52.116;5.286;2023-08-20T10:47:42;32.80;87.10
13817;DHT22;6979;52.116;5.286;2023-08-20T10:50:09;33.00;86.90
13817;DHT22;6979;52.116;5.286;2023-08-20T10:52:39;33.10;86.00
13817;DHT22;6979;52.116;5.286;2023-08-20T10:55:07;33.30;84.60
13817;DHT22;6979;52.116;5.286;2023-08-20T10:57:35;33.30;85.20
13817;DHT22;6979;52.116;5.286;2023-08-20T11:00:05;33.40;85.60
13817;DHT22;6979;52.116;5.286;2023-08-20T11:02:37;33.50;84.20
13817;DHT22;6979;52.116;5.286;2023-08-20T11:05:16;33.50;84.10
13817;DHT22;6979;52.116;5.286;2023-08-20T11:07:45;33.60;83.80
13817;DHT22;6979;52.116;5.286;2023-08-20T11:10:13;33.70;83.50
13817;DHT22;6979;52.116;5.286;2023-08-20T11:12:41;33.80;83.50
13817;DHT22;6979;52.116;5.286;2023-08-20T11:15:10;33.80;83.10
13817;DHT22;6979;52.116;5.286;2023-08-20T11:17:41;33.90;82.90
13817;DHT22;6979;52.116;5.286;2023-08-20T11:20:09;33.90;81.40
13817;DHT22;6979;52.116;5.286;2023-08-20T11:22:38;33.80;82.50
13817;DHT22;6979;52.116;5.286;2023-08-20T11:25:09;33.80;82.80
13817;DHT22;6979;52.116;5.286;2023-08-20T11:27:39;33.90;83.30
13817;DHT22;6979;52.116;5.286;2023-08-20T11:30:09;34.00;83.50
13817;DHT22;6979;52.116;5.286;2023-08-20T11:32:37;34.20;83.20
13817;DHT22;6979;52.116;5.286;2023-08-20T11:35:05;34.30;83.30
13817;DHT22;6979;52.116;5.286;2023-08-20T11:37:32;34.40;82.60
13817;DHT22;6979;52.116;5.286;2023-08-20T11:39:59;34.40;81.80
13817;DHT22;6979;52.116;5.286;2023-08-20T11:42:26;34.40;79.90
13817;DHT22;6979;52.116;5.286;2023-08-20T11:44:55;34.40;78.30
13817;DHT22;6979;52.116;5.286;2023-08-20T11:47:24;34.30;78.90
13817;DHT22;6979;52.116;5.286;2023-08-20T11:50:03;34.20;80.00
13817;DHT22;6979;52.116;5.286;2023-08-20T11:52:31;34.10;80.00
13817;DHT22;6979;52.116;5.286;2023-08-20T11:54:59;34.10;78.00
13817;DHT22;6979;52.116;5.286;2023-08-20T11:57:28;34.10;79.20
13817;DHT22;6979;52.116;5.286;2023-08-20T11:59:56;34.00;78.00
13817;DHT22;6979;52.116;5.286;2023-08-20T12:02:41;33.90;78.60
13817;DHT22;6979;52.116;5.286;2023-08-20T12:05:08;33.90;77.80
13817;DHT22;6979;52.116;5.286;2023-08-20T12:07:35;33.80;79.00
13817;DHT22;6979;52.116;5.286;2023-08-20T12:10:20;33.70;78.60
13817;DHT22;6979;52.116;5.286;2023-08-20T12:12:47;33.80;79.10
13817;DHT22;6979;52.116;5.286;2023-08-20T12:15:15;33.80;80.00
13817;DHT22;6979;52.116;5.286;2023-08-20T12:17:43;33.90;79.40
13817;DHT22;6979;52.116;5.286;2023-08-20T12:20:10;34.10;78.40
13817;DHT22;6979;52.116;5.286;2023-08-20T12:22:38;34.20;77.40
13817;DHT22;6979;52.116;5.286;2023-08-20T12:25:06;34.30;75.30
13817;DHT22;6979;52.116;5.286;2023-08-20T12:27:33;34.20;75.30
13817;DHT22;6979;52.116;5.286;2023-08-20T12:30:00;34.00;76.50
13817;DHT22;6979;52.116;5.286;2023-08-20T12:32:28;33.90;76.50
13817;DHT22;6979;52.116;5.286;2023-08-20T12:34:57;33.70;76.70
13817;DHT22;6979;52.116;5.286;2023-08-20T12:37:24;33.60;76.90
13817;DHT22;6979;52.116;5.286;2023-08-20T12:39:50;33.30;77.10
13817;DHT22;6979;52.116;5.286;2023-08-20T12:42:17;33.20;76.70
13817;DHT22;6979;52.116;5.286;2023-08-20T12:44:44;33.00;77.10
13817;DHT22;6979;52.116;5.286;2023-08-20T12:47:11;32.90;77.50
13817;DHT22;6979;52.116;5.286;2023-08-20T12:49:38;32.80;77.10
13817;DHT22;6979;52.116;5.286;2023-08-20T12:52:06;32.70;76.40
13817;DHT22;6979;52.116;5.286;2023-08-20T12:54:33;32.60;76.70
13817;DHT22;6979;52.116;5.286;2023-08-20T12:57:00;32.50;78.40
13817;DHT22;6979;52.116;5.286;2023-08-20T12:59:28;32.40;80.40
13817;DHT22;6979;52.116;5.286;2023-08-20T13:01:55;32.50;81.10
13817;DHT22;6979;52.116;5.286;2023-08-20T13:04:24;32.60;81.40
13817;DHT22;6979;52.116;5.286;2023-08-20T13:06:51;32.80;81.60
13817;DHT22;6979;52.116;5.286;2023-08-20T13:09:20;32.90;80.50
13817;DHT22;6979;52.116;5.286;2023-08-20T13:11:48;33.10;80.60
13817;DHT22;6979;52.116;5.286;2023-08-20T13:14:16;33.20;80.50
13817;DHT22;6979;52.116;5.286;2023-08-20T13:16:44;33.30;79.70
13817;DHT22;6979;52.116;5.286;2023-08-20T13:19:11;33.40;80.10
13817;DHT22;6979;52.116;5.286;2023-08-20T13:21:38;33.50;80.50
13817;DHT22;6979;52.116;5.286;2023-08-20T13:24:06;33.60;80.20
13817;DHT22;6979;52.116;5.286;2023-08-20T13:26:35;33.70;79.50
13817;DHT22;6979;52.116;5.286;2023-08-20T13:29:03;33.70;79.30
13817;DHT22;6979;52.116;5.286;2023-08-20T13:31:30;33.80;79.00
13817;DHT22;6979;52.116;5.286;2023-08-20T13:33:56;33.80;78.70
13817;DHT22;6979;52.116;5.286;2023-08-20T13:36:23;33.80;79.00
13817;DHT22;6979;52.116;5.286;2023-08-20T13:38:50;33.70;79.20
13817;DHT22;6979;52.116;5.286;2023-08-20T13:41:17;33.70;80.00
13817;DHT22;6979;52.116;5.286;2023-08-20T13:43:46;33.70;79.10
13817;DHT22;6979;52.116;5.286;2023-08-20T13:46:13;33.60;79.40
13817;DHT22;6979;52.116;5.286;2023-08-20T13:48:41;33.60;79.70
13817;DHT22;6979;52.116;5.286;2023-08-20T13:51:07;33.50;80.00
13817;DHT22;6979;52.116;5.286;2023-08-20T13:53:34;33.50;80.30
13817;DHT22;6979;52.116;5.286;2023-08-20T13:56:01;33.50;80.50
13817;DHT22;6979;52.116;5.286;2023-08-20T13:58:28;33.50;80.40
13817;DHT22;6979;52.116;5.286;2023-08-20T14:00:57;33.50;80.20
13817;DHT22;6979;52.116;5.286;2023-08-20T14:03:24;33.50;79.60
13817;DHT22;6979;52.116;5.286;2023-08-20T14:05:51;33.50;79.70
13817;DHT22;6979;52.116;5.286;2023-08-20T14:08:18;33.50;79.60
13817;DHT22;6979;52.116;5.286;2023-08-20T14:10:45;33.40;79.70
13817;DHT22;6979;52.116;5.286;2023-08-20T14:13:13;33.40;79.50
13817;DHT22;6979;52.116;5.286;2023-08-20T14:15:40;33.40;79.50
13817;DHT22;6979;52.116;5.286;2023-08-20T14:18:08;33.30;79.70
13817;DHT22;6979;52.116;5.286;2023-08-20T14:20:35;33.30;80.80
13817;DHT22;6979;52.116;5.286;2023-08-20T14:23:02;33.20;79.70
13817;DHT22;6979;52.116;5.286;2023-08-20T14:25:29;33.10;80.00
13817;DHT22;6979;52.116;5.286;2023-08-20T14:27:56;33.10;80.50
13817;DHT22;6979;52.116;5.286;2023-08-20T14:30:23;33.00;80.90
13817;DHT22;6979;52.116;5.286;2023-08-20T14:32:49;33.00;80.90
13817;DHT22;6979;52.116;5.286;2023-08-20T14:35:17;33.00;80.40
13817;DHT22;6979;52.116;5.286;2023-08-20T14:37:44;33.00;80.90
13817;DHT22;6979;52.116;5.286;2023-08-20T14:40:11;33.10;81.00
13817;DHT22;6979;52.116;5.286;2023-08-20T14:42:38;33.10;81.00
13817;DHT22;6979;52.116;5.286;2023-08-20T14:45:07;33.30;81.00
13817;DHT22;6979;52.116;5.286;2023-08-20T14:47:34;33.30;79.70
13817;DHT22;6979;52.116;5.286;2023-08-20T14:50:01;33.30;80.30
13817;DHT22;6979;52.116;5.286;2023-08-20T14:52:30;33.30;80.50
13817;DHT22;6979;52.116;5.286;2023-08-20T14:54:56;33.30;80.70
13817;DHT22;6979;52.116;5.286;2023-08-20T14:57:24;33.40;81.20
13817;DHT22;6979;52.116;5.286;2023-08-20T14:59:51;33.40;80.90
13817;DHT22;6979;52.116;5.286;2023-08-20T15:02:18;33.50;81.10
13817;DHT22;6979;52.116;5.286;2023-08-20T15:04:44;33.60;80.30
13817;DHT22;6979;52.116;5.286;2023-08-20T15:07:11;33.70;80.30
13817;DHT22;6979;52.116;5.286;2023-08-20T15:09:40;33.80;80.40
13817;DHT22;6979;52.116;5.286;2023-08-20T15:12:07;33.90;80.10
13817;DHT22;6979;52.116;5.286;2023-08-20T15:14:34;34.10;80.40
13817;DHT22;6979;52.116;5.286;2023-08-20T15:17:01;34.20;80.30
13817;DHT22;6979;52.116;5.286;2023-08-20T15:19:28;34.30;79.10
13817;DHT22;6979;52.116;5.286;2023-08-20T15:21:55;34.40;79.30
13817;DHT22;6979;52.116;5.286;2023-08-20T15:24:22;34.60;78.80
13817;DHT22;6979;52.116;5.286;2023-08-20T15:26:50;34.70;78.90
13817;DHT22;6979;52.116;5.286;2023-08-20T15:29:17;34.80;78.50
13817;DHT22;6979;52.116;5.286;2023-08-20T15:31:44;34.90;78.20
13817;DHT22;6979;52.116;5.286;2023-08-20T15:34:11;34.90;77.80
13817;DHT22;6979;52.116;5.286;2023-08-20T15:36:38;34.90;77.50
13817;DHT22;6979;52.116;5.286;2023-08-20T15:39:05;34.90;77.40
13817;DHT22;6979;52.116;5.286;2023-08-20T15:41:32;34.90;77.40
13817;DHT22;6979;52.116;5.286;2023-08-20T15:44:01;34.70;77.30
13817;DHT22;6979;52.116;5.286;2023-08-20T15:46:28;34.60;77.20
13817;DHT22;6979;52.116;5.286;2023-08-20T15:48:55;34.40;77.60
13817;DHT22;6979;52.116;5.286;2023-08-20T15:51:22;34.20;77.80